createdAt,value
2017-12-30T00:01:55.547Z,2.20
2017-12-30T00:04:23.048Z,2.20
2017-12-30T00:06:50.565Z,2.20
2017-12-30T00:09:18.077Z,2.20
2017-12-30T00:11:45.595Z,2.30
2017-12-30T00:14:13.912Z,2.20
2017-12-30T00:16:41.467Z,2.30
2017-12-30T00:19:08.930Z,2.30
2017-12-30T00:21:36.399Z,2.30
2017-12-30T00:24:03.920Z,2.30
2017-12-30T00:26:32.149Z,2.30
2017-12-30T00:28:59.677Z,2.30
2017-12-30T00:31:27.184Z,2.30
2017-12-30T00:33:55.461Z,2.20
2017-12-30T00:36:23.691Z,2.20
2017-12-30T00:38:51.175Z,2.20
2017-12-30T00:41:18.676Z,2.20
2017-12-30T00:43:46.926Z,2.20
2017-12-30T00:46:14.399Z,2.20
2017-12-30T00:48:42.655Z,2.20
2017-12-30T00:51:10.133Z,2.20
2017-12-30T00:53:38.400Z,2.20
2017-12-30T00:56:05.856Z,2.20
2017-12-30T00:58:33.322Z,2.30
2017-12-30T01:01:01.594Z,2.20
2017-12-30T01:03:29.105Z,2.20
2017-12-30T01:05:56.575Z,2.20
2017-12-30T01:08:24.068Z,2.20
2017-12-30T01:10:52.317Z,2.20
2017-12-30T01:13:19.774Z,2.20
2017-12-30T01:15:47.239Z,2.20
2017-12-30T01:18:14.712Z,2.20
2017-12-30T01:20:42.176Z,2.20
2017-12-30T01:23:10.434Z,2.20
2017-12-30T01:25:37.917Z,2.20
2017-12-30T01:28:06.144Z,2.20
2017-12-30T01:30:33.631Z,2.10
2017-12-30T01:33:01.854Z,2.20
2017-12-30T01:35:29.320Z,2.10
2017-12-30T01:37:56.783Z,2.20
2017-12-30T01:40:24.255Z,2.20
2017-12-30T01:42:51.720Z,2.20
2017-12-30T01:45:19.207Z,2.20
2017-12-30T01:47:47.447Z,2.20
2017-12-30T01:50:14.927Z,2.20
2017-12-30T01:52:42.389Z,2.20
2017-12-30T01:55:09.891Z,2.20
2017-12-30T01:57:37.370Z,2.10
2017-12-30T02:00:04.853Z,2.10
2017-12-30T02:02:32.335Z,2.10
2017-12-30T02:05:00.585Z,2.00
2017-12-30T02:07:28.042Z,2.00
2017-12-30T02:09:55.518Z,1.90
2017-12-30T02:12:23.748Z,1.90
2017-12-30T02:14:51.212Z,1.80
2017-12-30T02:17:18.682Z,1.90
2017-12-30T02:19:46.156Z,1.80
2017-12-30T02:22:13.608Z,1.80
2017-12-30T02:24:42.593Z,1.80
2017-12-30T02:27:11.095Z,1.70
2017-12-30T02:29:39.350Z,1.80
2017-12-30T02:32:06.833Z,1.80
2017-12-30T02:34:35.071Z,1.80
2017-12-30T02:37:02.544Z,1.80
2017-12-30T02:39:30.016Z,1.80
2017-12-30T02:41:58.028Z,1.80
2017-12-30T02:44:25.482Z,1.80
2017-12-30T02:46:52.943Z,1.70
2017-12-30T02:49:20.411Z,1.70
2017-12-30T02:51:47.913Z,1.70
2017-12-30T02:54:15.466Z,1.70
2017-12-30T02:56:42.946Z,1.70
2017-12-30T02:59:11.168Z,1.70
2017-12-30T03:01:38.646Z,1.70
2017-12-30T03:04:06.116Z,1.70
2017-12-30T03:06:33.583Z,1.70
2017-12-30T03:09:01.835Z,1.70
2017-12-30T03:11:29.313Z,1.70
2017-12-30T03:13:56.780Z,1.70
2017-12-30T03:16:24.270Z,1.60
2017-12-30T03:18:51.727Z,1.60
2017-12-30T03:21:19.211Z,1.60
2017-12-30T03:23:46.677Z,1.60
2017-12-30T03:26:15.077Z,1.60
2017-12-30T03:28:42.539Z,1.60
2017-12-30T03:31:10.797Z,1.60
2017-12-30T03:33:38.265Z,1.60
2017-12-30T03:36:05.752Z,1.60
2017-12-30T03:38:33.988Z,1.60
2017-12-30T03:41:01.467Z,1.60
2017-12-30T03:43:28.917Z,1.70
2017-12-30T03:45:57.647Z,1.70
2017-12-30T03:48:25.112Z,1.70
2017-12-30T03:50:52.611Z,1.70
2017-12-30T03:53:20.109Z,1.70
2017-12-30T03:55:47.584Z,1.70
2017-12-30T03:58:15.063Z,1.70
2017-12-30T04:00:42.537Z,1.70
2017-12-30T04:03:10.027Z,1.70
2017-12-30T04:05:37.492Z,1.70
2017-12-30T04:08:05.745Z,1.70
2017-12-30T04:10:33.213Z,1.70
2017-12-30T04:13:01.447Z,1.70
2017-12-30T04:15:28.918Z,1.70
2017-12-30T04:17:56.392Z,1.70
2017-12-30T04:20:24.614Z,1.70
2017-12-30T04:22:52.096Z,1.70
2017-12-30T04:25:19.563Z,1.80
2017-12-30T04:27:47.049Z,1.70
2017-12-30T04:30:15.292Z,1.70
2017-12-30T04:32:42.780Z,1.70
2017-12-30T04:35:10.284Z,1.70
2017-12-30T04:37:37.775Z,1.80
2017-12-30T04:40:05.290Z,1.80
2017-12-30T04:42:32.778Z,1.80
2017-12-30T04:45:00.251Z,1.80
2017-12-30T04:47:27.723Z,1.80
2017-12-30T04:49:55.974Z,1.80
2017-12-30T04:52:23.468Z,1.80
2017-12-30T04:54:51.716Z,1.80
2017-12-30T04:57:19.201Z,1.80
2017-12-30T04:59:47.444Z,1.80
2017-12-30T05:02:14.936Z,1.80
2017-12-30T05:04:43.176Z,1.80
2017-12-30T05:07:10.656Z,1.80
2017-12-30T05:09:38.139Z,1.90
2017-12-30T05:12:06.376Z,1.90
2017-12-30T05:14:34.052Z,1.80
2017-12-30T05:17:02.302Z,1.90
2017-12-30T05:19:29.783Z,1.90
2017-12-30T05:21:57.242Z,1.90
2017-12-30T05:24:24.715Z,1.90
2017-12-30T05:26:52.968Z,2.00
2017-12-30T05:29:20.547Z,2.00
2017-12-30T05:31:48.822Z,2.00
2017-12-30T05:34:17.848Z,2.00
2017-12-30T05:36:45.325Z,2.00
2017-12-30T05:39:12.804Z,2.00
2017-12-30T05:41:40.280Z,2.00
2017-12-30T05:44:08.534Z,2.10
2017-12-30T05:46:36.003Z,2.00
2017-12-30T05:49:03.495Z,2.10
2017-12-30T05:51:30.972Z,2.10
2017-12-30T05:53:58.449Z,2.10
2017-12-30T05:56:25.920Z,2.10
2017-12-30T05:58:53.404Z,2.10
2017-12-30T06:01:20.872Z,2.10
2017-12-30T06:03:49.131Z,2.10
2017-12-30T06:06:16.594Z,2.10
2017-12-30T06:08:44.836Z,2.10
2017-12-30T06:11:12.295Z,2.10
2017-12-30T06:13:39.773Z,2.10
2017-12-30T06:16:07.234Z,2.10
2017-12-30T06:18:34.704Z,2.10
2017-12-30T06:21:04.600Z,2.10
2017-12-30T06:23:33.575Z,2.10
2017-12-30T06:26:01.052Z,2.10
2017-12-30T06:28:28.519Z,2.20
2017-12-30T06:30:56.016Z,2.20
2017-12-30T06:33:23.491Z,2.20
2017-12-30T06:35:50.966Z,2.20
2017-12-30T06:38:18.441Z,2.20
2017-12-30T06:40:45.931Z,2.20
2017-12-30T06:43:35.115Z,2.20
2017-12-30T06:46:02.602Z,2.20
2017-12-30T06:48:30.088Z,2.20
2017-12-30T06:50:57.574Z,2.20
2017-12-30T06:53:25.813Z,2.20
2017-12-30T06:55:53.296Z,2.20
2017-12-30T06:58:21.536Z,2.20
2017-12-30T07:00:49.024Z,2.20
2017-12-30T07:03:17.268Z,2.20
2017-12-30T07:05:44.757Z,2.20
2017-12-30T07:08:12.992Z,2.30
2017-12-30T07:10:40.492Z,2.20
2017-12-30T07:13:08.732Z,2.30
2017-12-30T07:15:36.212Z,2.20
2017-12-30T07:18:03.680Z,2.30
2017-12-30T07:20:31.921Z,2.30
2017-12-30T07:22:59.400Z,2.30
2017-12-30T07:25:28.385Z,2.30
2017-12-30T07:30:49.291Z,2.30
2017-12-30T07:33:16.754Z,2.30
2017-12-30T07:35:44.240Z,2.30
2017-12-30T07:38:11.706Z,2.30
2017-12-30T07:40:39.950Z,2.30
2017-12-30T07:43:07.429Z,2.30
2017-12-30T07:45:35.672Z,2.30
2017-12-30T07:48:03.142Z,2.30
2017-12-30T07:50:30.620Z,2.30
2017-12-30T07:52:58.087Z,2.30
2017-12-30T07:55:26.356Z,2.40
2017-12-30T07:57:53.837Z,2.40
2017-12-30T08:00:21.719Z,2.40
2017-12-30T08:02:49.964Z,2.40
2017-12-30T08:05:18.204Z,2.40
2017-12-30T08:07:45.678Z,2.40
2017-12-30T08:10:13.139Z,2.40
2017-12-30T08:12:40.628Z,2.40
2017-12-30T08:15:08.097Z,2.40
2017-12-30T08:17:36.334Z,2.40
2017-12-30T08:20:03.803Z,2.40
2017-12-30T08:22:32.052Z,2.40
2017-12-30T08:25:03.288Z,2.40
2017-12-30T08:27:30.774Z,2.40
2017-12-30T08:29:58.312Z,2.40
2017-12-30T08:32:25.789Z,2.50
2017-12-30T08:34:54.014Z,2.50
2017-12-30T08:37:21.487Z,2.50
2017-12-30T08:39:48.963Z,2.50
2017-12-30T08:42:16.441Z,2.50
2017-12-30T08:44:44.671Z,2.50
2017-12-30T08:47:12.163Z,2.50
2017-12-30T08:49:39.634Z,2.60
2017-12-30T08:52:07.888Z,2.60
2017-12-30T08:54:35.354Z,2.60
2017-12-30T08:57:03.620Z,2.50
2017-12-30T08:59:31.083Z,2.50
2017-12-30T09:01:58.560Z,2.60
2017-12-30T09:04:27.716Z,2.60
2017-12-30T09:06:55.195Z,2.50
2017-12-30T09:09:23.448Z,2.60
2017-12-30T09:11:50.912Z,2.60
2017-12-30T09:14:18.404Z,2.60
2017-12-30T09:16:46.633Z,2.70
2017-12-30T09:19:14.159Z,2.60
2017-12-30T09:21:42.372Z,2.70
2017-12-30T09:24:09.844Z,2.70
2017-12-30T09:26:37.320Z,2.70
2017-12-30T09:29:04.852Z,2.80
2017-12-30T09:31:32.337Z,2.80
2017-12-30T09:33:59.819Z,2.90
2017-12-30T09:36:28.048Z,2.90
2017-12-30T09:38:55.548Z,2.90
2017-12-30T09:41:23.776Z,2.90
2017-12-30T09:43:51.275Z,2.90
2017-12-30T09:46:19.509Z,2.90
2017-12-30T09:48:47.764Z,3.00
2017-12-30T09:51:15.237Z,2.90
2017-12-30T09:53:42.717Z,2.90
2017-12-30T09:56:10.182Z,2.90
2017-12-30T09:58:37.659Z,3.00
2017-12-30T10:01:05.909Z,3.00
2017-12-30T10:03:33.400Z,3.00
2017-12-30T10:06:02.328Z,2.90
2017-12-30T10:08:30.740Z,2.90
2017-12-30T10:10:58.231Z,3.00
2017-12-30T10:13:25.724Z,3.10
2017-12-30T10:15:53.237Z,3.20
2017-12-30T10:18:22.504Z,3.40
2017-12-30T10:20:49.982Z,3.40
2017-12-30T10:23:18.246Z,3.70
2017-12-30T10:25:46.527Z,3.60
2017-12-30T10:28:14.004Z,3.70
2017-12-30T10:30:41.613Z,3.60
2017-12-30T10:33:09.100Z,3.70
2017-12-30T10:35:36.583Z,3.70
2017-12-30T10:38:04.820Z,3.60
2017-12-30T10:40:33.104Z,3.60
2017-12-30T10:43:00.583Z,3.70
2017-12-30T10:45:28.812Z,3.60
2017-12-30T10:47:56.284Z,3.60
2017-12-30T10:50:23.755Z,3.60
2017-12-30T10:52:51.216Z,3.80
2017-12-30T10:55:18.688Z,3.80
2017-12-30T10:57:46.930Z,3.80
2017-12-30T11:00:14.392Z,3.80
2017-12-30T11:02:41.873Z,3.90
2017-12-30T11:05:10.139Z,4.00
2017-12-30T11:07:37.716Z,3.90
2017-12-30T11:10:05.966Z,4.10
2017-12-30T11:12:33.432Z,4.00
2017-12-30T11:15:01.676Z,4.10
2017-12-30T11:17:29.163Z,4.10
2017-12-30T11:19:56.635Z,4.10
2017-12-30T11:22:24.117Z,4.10
2017-12-30T11:24:51.674Z,4.10
2017-12-30T11:27:19.916Z,4.30
2017-12-30T11:29:48.157Z,4.30
2017-12-30T11:32:15.658Z,4.30
2017-12-30T11:34:43.131Z,4.30
2017-12-30T11:37:11.386Z,4.40
2017-12-30T11:39:38.845Z,4.40
2017-12-30T11:42:07.091Z,4.50
2017-12-30T11:44:34.572Z,4.50
2017-12-30T11:47:02.056Z,4.60
2017-12-30T11:49:30.287Z,4.70
2017-12-30T11:51:57.782Z,4.60
2017-12-30T11:54:26.024Z,4.70
2017-12-30T11:56:54.279Z,4.80
2017-12-30T11:59:21.748Z,4.80
2017-12-30T12:01:49.264Z,4.80
2017-12-30T12:04:17.491Z,4.90
2017-12-30T12:06:44.979Z,4.80
2017-12-30T12:09:13.465Z,4.90
2017-12-30T12:11:40.944Z,5.20
2017-12-30T12:14:09.373Z,5.30
2017-12-30T12:16:37.865Z,5.40
2017-12-30T12:19:05.340Z,5.60
2017-12-30T12:21:33.614Z,5.80
2017-12-30T12:24:01.101Z,5.80
2017-12-30T12:26:28.594Z,5.80
2017-12-30T12:28:56.060Z,5.90
2017-12-30T12:31:23.542Z,6.00
2017-12-30T12:33:51.037Z,5.90
2017-12-30T12:36:18.512Z,6.00
2017-12-30T12:38:46.020Z,6.10
2017-12-30T12:41:14.266Z,6.10
2017-12-30T12:43:41.741Z,6.00
2017-12-30T12:46:09.205Z,6.00
2017-12-30T12:48:36.715Z,5.90
2017-12-30T12:51:04.176Z,6.00
2017-12-30T12:53:31.666Z,5.80
2017-12-30T12:55:59.143Z,5.80
2017-12-30T12:58:26.616Z,5.80
2017-12-30T13:00:54.851Z,5.80
2017-12-30T13:03:22.339Z,5.80
2017-12-30T13:05:50.592Z,5.80
2017-12-30T13:08:18.084Z,5.80
2017-12-30T13:10:46.471Z,5.70
2017-12-30T13:13:13.960Z,5.70
2017-12-30T13:15:41.438Z,5.70
2017-12-30T13:18:09.680Z,5.70
2017-12-30T13:20:37.161Z,5.60
2017-12-30T13:23:04.667Z,5.60
2017-12-30T13:25:32.895Z,5.50
2017-12-30T13:28:00.372Z,5.50
2017-12-30T13:30:27.838Z,5.50
2017-12-30T13:32:56.082Z,5.60
2017-12-30T13:35:23.576Z,5.50
2017-12-30T13:37:51.050Z,5.50
2017-12-30T13:40:19.298Z,5.60
2017-12-30T13:42:47.597Z,5.60
2017-12-30T13:45:15.849Z,5.60
2017-12-30T13:47:43.337Z,5.60
2017-12-30T13:53:04.858Z,5.80
2017-12-30T13:55:33.114Z,6.30
2017-12-30T13:58:00.631Z,6.30
2017-12-30T14:00:28.129Z,6.20
2017-12-30T14:02:55.638Z,6.30
2017-12-30T14:05:23.163Z,6.30
2017-12-30T14:07:50.636Z,6.60
2017-12-30T14:10:18.872Z,6.90
2017-12-30T14:12:46.362Z,6.80
2017-12-30T14:15:14.668Z,7.40
2017-12-30T14:17:42.156Z,7.40
2017-12-30T14:20:09.669Z,7.40
2017-12-30T14:22:37.896Z,7.70
2017-12-30T14:25:05.381Z,7.70
2017-12-30T14:27:32.887Z,7.70
2017-12-30T14:30:00.387Z,7.80
2017-12-30T14:32:27.890Z,7.80
2017-12-30T14:34:55.380Z,8.00
2017-12-30T14:37:23.934Z,8.10
2017-12-30T14:39:51.471Z,8.20
2017-12-30T14:42:19.765Z,8.10
2017-12-30T14:44:47.225Z,8.00
2017-12-30T14:47:14.696Z,8.20
2017-12-30T14:49:42.173Z,8.20
2017-12-30T14:52:09.656Z,8.20
2017-12-30T14:54:37.145Z,8.20
2017-12-30T14:57:05.380Z,8.20
2017-12-30T14:59:33.633Z,8.20
2017-12-30T15:02:01.121Z,8.20
2017-12-30T15:04:30.139Z,8.10
2017-12-30T15:06:58.387Z,8.10
2017-12-30T15:09:25.856Z,8.10
2017-12-30T15:11:54.116Z,8.00
2017-12-30T15:14:21.708Z,8.00
2017-12-30T15:16:50.023Z,8.00
2017-12-30T15:19:17.515Z,8.00
2017-12-30T15:21:45.005Z,8.10
2017-12-30T15:24:13.289Z,8.00
2017-12-30T15:26:41.553Z,7.90
2017-12-30T15:29:09.832Z,7.90
2017-12-30T15:31:38.109Z,7.80
2017-12-30T15:34:06.391Z,8.00
2017-12-30T15:36:34.619Z,8.00
2017-12-30T15:39:02.171Z,8.00
2017-12-30T15:41:29.644Z,8.20
2017-12-30T15:43:57.136Z,8.30
2017-12-30T15:46:25.379Z,8.30
2017-12-30T15:48:53.624Z,8.60
2017-12-30T15:51:21.107Z,8.50
2017-12-30T15:53:48.600Z,8.60
2017-12-30T15:56:16.837Z,8.60
2017-12-30T15:58:44.316Z,8.60
2017-12-30T16:01:11.877Z,8.60
2017-12-30T16:03:40.124Z,8.50
2017-12-30T16:06:07.616Z,8.50
2017-12-30T16:08:35.142Z,8.60
2017-12-30T16:11:02.614Z,8.50
2017-12-30T16:13:30.103Z,8.40
2017-12-30T16:16:13.544Z,8.60
2017-12-30T16:21:34.957Z,8.60
2017-12-30T16:24:02.428Z,8.40
2017-12-30T16:26:30.671Z,8.80
2017-12-30T16:28:58.156Z,8.80
2017-12-30T16:31:26.384Z,8.50
2017-12-30T16:33:53.879Z,8.50
2017-12-30T16:36:21.439Z,8.40
2017-12-30T16:38:48.978Z,8.50
2017-12-30T16:41:16.446Z,8.60
2017-12-30T16:43:43.940Z,8.40
2017-12-30T16:46:11.406Z,8.20
2017-12-30T16:48:38.922Z,8.10
2017-12-30T16:51:06.380Z,8.20
2017-12-30T16:53:33.863Z,8.10
2017-12-30T16:56:02.129Z,8.10
2017-12-30T16:58:30.366Z,8.00
2017-12-30T17:00:58.471Z,7.90
2017-12-30T17:03:25.976Z,8.10
2017-12-30T17:05:53.499Z,8.20
2017-12-30T17:08:21.731Z,8.10
2017-12-30T17:10:49.213Z,8.10
2017-12-30T17:13:18.213Z,8.20
2017-12-30T17:15:46.500Z,8.10
2017-12-30T17:18:14.794Z,8.10
2017-12-30T17:20:42.331Z,8.10
2017-12-30T17:23:10.622Z,8.10
2017-12-30T17:25:38.100Z,8.10
2017-12-30T17:28:05.572Z,8.20
2017-12-30T17:30:33.072Z,8.40
2017-12-30T17:33:00.595Z,8.40
2017-12-30T17:35:28.751Z,8.30
2017-12-30T17:37:56.224Z,8.20
2017-12-30T17:40:23.756Z,8.20
2017-12-30T17:42:51.238Z,8.40
2017-12-30T17:45:18.762Z,8.30
2017-12-30T17:47:47.039Z,8.30
2017-12-30T17:50:15.313Z,8.30
2017-12-30T17:52:43.599Z,8.30
2017-12-30T17:55:11.177Z,8.20
2017-12-30T17:57:38.635Z,8.20
2017-12-30T18:00:06.160Z,8.10
2017-12-30T18:02:34.422Z,8.30
2017-12-30T18:05:01.964Z,8.30
2017-12-30T18:07:29.476Z,8.40
2017-12-30T18:09:56.991Z,8.30
2017-12-30T18:12:24.598Z,8.20
2017-12-30T18:14:52.267Z,8.20
2017-12-30T18:17:19.781Z,8.10
2017-12-30T18:19:47.242Z,8.00
2017-12-30T18:22:14.754Z,8.10
2017-12-30T18:24:42.236Z,8.10
2017-12-30T18:27:09.726Z,8.00
2017-12-30T18:29:37.964Z,8.20
2017-12-30T18:32:05.473Z,8.20
2017-12-30T18:34:32.990Z,8.30
2017-12-30T18:37:00.525Z,8.30
2017-12-30T18:39:28.043Z,8.20
2017-12-30T18:41:56.335Z,8.30
2017-12-30T18:44:23.795Z,8.30
2017-12-30T18:46:52.591Z,8.40
2017-12-30T18:49:20.116Z,8.30
2017-12-30T18:51:48.424Z,8.20
2017-12-30T18:54:15.955Z,8.20
2017-12-30T18:56:44.930Z,8.20
2017-12-30T18:59:13.214Z,8.10
2017-12-30T19:01:40.696Z,8.10
2017-12-30T19:04:08.219Z,8.00
2017-12-30T19:06:35.757Z,8.10
2017-12-30T19:09:03.281Z,7.90
2017-12-30T19:11:30.764Z,8.00
2017-12-30T19:13:58.332Z,8.00
2017-12-30T19:16:25.920Z,7.90
2017-12-30T19:18:54.213Z,7.90
2017-12-30T19:21:23.232Z,7.90
2017-12-30T19:23:50.723Z,7.90
2017-12-30T19:26:18.262Z,7.80
2017-12-30T19:28:45.800Z,7.70
2017-12-30T19:31:13.321Z,7.70
2017-12-30T19:33:40.892Z,7.70
2017-12-30T19:36:09.174Z,7.60
2017-12-30T19:38:37.482Z,7.60
2017-12-30T19:41:05.005Z,7.60
2017-12-30T19:43:33.319Z,7.50
2017-12-30T19:46:00.838Z,7.50
2017-12-30T19:48:29.140Z,7.60
2017-12-30T19:50:56.655Z,7.50
2017-12-30T19:53:25.006Z,7.70
2017-12-30T19:55:52.542Z,7.70
2017-12-30T19:58:20.095Z,7.80
2017-12-30T20:00:47.613Z,7.90
2017-12-30T20:03:15.145Z,7.90
2017-12-30T20:05:42.686Z,8.00
2017-12-30T20:08:10.225Z,7.90
2017-12-30T20:10:38.593Z,8.20
2017-12-30T20:13:06.907Z,8.10
2017-12-30T20:15:34.428Z,8.10
2017-12-30T20:18:02.725Z,8.10
2017-12-30T20:20:30.248Z,8.10
2017-12-30T20:22:57.788Z,8.30
2017-12-30T20:25:26.079Z,8.30
2017-12-30T20:27:54.405Z,8.20
2017-12-30T20:30:21.920Z,8.10
2017-12-30T20:32:49.480Z,8.20
2017-12-30T20:35:18.849Z,8.10
2017-12-30T20:37:46.380Z,8.10
2017-12-30T20:40:13.930Z,8.20
2017-12-30T20:42:41.451Z,8.40
2017-12-30T20:45:08.984Z,8.30
2017-12-30T20:47:36.503Z,8.30
2017-12-30T20:50:04.815Z,8.30
2017-12-30T20:52:32.356Z,8.30
2017-12-30T20:54:59.889Z,8.30
2017-12-30T20:57:28.173Z,8.40
2017-12-30T20:59:56.458Z,8.50
2017-12-30T21:02:23.990Z,8.50
2017-12-30T21:04:52.316Z,8.70
2017-12-30T21:07:19.837Z,8.70
2017-12-30T21:09:48.144Z,8.60
2017-12-30T21:12:15.667Z,8.60
2017-12-30T21:14:43.984Z,8.70
2017-12-30T21:17:11.508Z,8.70
2017-12-30T21:19:39.831Z,8.90
2017-12-30T21:22:07.361Z,8.90
2017-12-30T21:24:36.191Z,8.80
2017-12-30T21:27:03.748Z,8.80
2017-12-30T21:29:31.280Z,8.90
2017-12-30T21:31:58.816Z,8.90
2017-12-30T21:34:26.380Z,8.90
2017-12-30T21:36:54.678Z,9.00
2017-12-30T21:39:22.212Z,9.00
2017-12-30T21:41:50.502Z,8.90
2017-12-30T21:44:18.043Z,8.80
2017-12-30T21:46:46.344Z,8.80
2017-12-30T21:49:13.908Z,8.80
2017-12-30T21:51:41.418Z,8.90
2017-12-30T21:54:08.931Z,8.90
2017-12-30T21:56:36.470Z,9.00
2017-12-30T21:59:03.991Z,9.00
2017-12-30T22:01:32.329Z,8.80
2017-12-30T22:03:59.846Z,8.80
2017-12-30T22:06:28.143Z,9.10
2017-12-30T22:08:55.663Z,9.00
2017-12-30T22:11:23.199Z,9.10
2017-12-30T22:13:50.719Z,9.10
2017-12-30T22:16:18.247Z,9.10
2017-12-30T22:18:45.795Z,9.20
2017-12-30T22:21:14.108Z,9.00
2017-12-30T22:23:42.702Z,9.00
2017-12-30T22:26:11.000Z,9.00
2017-12-30T22:28:38.527Z,9.00
2017-12-30T22:31:06.829Z,9.20
2017-12-30T22:33:34.366Z,9.20
2017-12-30T22:36:01.924Z,9.30
2017-12-30T22:38:30.200Z,9.30
2017-12-30T22:40:59.276Z,9.30
2017-12-30T22:43:27.556Z,9.40
2017-12-30T22:45:55.859Z,9.30
2017-12-30T22:48:23.384Z,9.30
2017-12-30T22:50:50.918Z,9.30
2017-12-30T22:53:18.440Z,9.30
2017-12-30T22:55:45.956Z,9.20
2017-12-30T22:58:13.487Z,9.30
2017-12-30T23:00:46.876Z,9.30
2017-12-30T23:03:14.404Z,9.30
2017-12-30T23:05:41.951Z,9.30
2017-12-30T23:08:10.231Z,9.40
2017-12-30T23:10:38.535Z,9.50
2017-12-30T23:13:06.064Z,9.40
2017-12-30T23:15:34.352Z,9.30
2017-12-30T23:18:01.894Z,9.40
2017-12-30T23:20:30.202Z,9.40
2017-12-30T23:22:57.774Z,9.40
2017-12-30T23:25:25.283Z,9.20
2017-12-30T23:27:52.847Z,9.20
2017-12-30T23:30:21.132Z,9.20
2017-12-30T23:32:49.433Z,9.10
2017-12-30T23:35:17.301Z,9.10
2017-12-30T23:37:44.828Z,9.10
2017-12-30T23:40:13.113Z,9.20
2017-12-30T23:42:41.420Z,9.00
2017-12-30T23:45:08.935Z,9.00
2017-12-30T23:47:36.454Z,9.00
2017-12-30T23:50:03.978Z,9.10
2017-12-30T23:52:31.502Z,9.10
2017-12-30T23:54:59.938Z,9.20
2017-12-30T23:57:27.471Z,9.10
2017-12-30T23:59:55.028Z,9.10
